Time;durP1;ratioP1;P1;durP2;ratioP2;P2;SDS_P1;SDS_P2;PMS_P1;PMS_P2;Temp;Humidity;BMP_temperature;BMP_pressure;BME280_temperature;BME280_humidity;BME280_pressure;Samples;Min_cycle;Max_cycle;Signal;HPM_P1;HPM_P2
2022/04/11 00:01:35;;;;;;;;;;;2.00;99.90;;;1.09;100.00;97584.38;5069191;28;20393;-46
2022/04/11 00:04:00;;;;;;;;;;;1.90;99.90;;;1.13;100.00;97588.72;5068323;28;19982;-45
2022/04/11 00:06:26;;;;;;;;;;;1.90;99.90;;;1.09;100.00;97581.78;5072167;28;19973;-46
2022/04/11 00:08:52;;;;;;;;;;;1.90;99.90;;;1.07;100.00;97588.72;5067628;28;19932;-47
2022/04/11 00:11:17;;;;;;;;;;;1.90;99.90;;;1.03;100.00;97581.78;5064463;28;19928;-46
2022/04/11 00:13:43;;;;;;;;;;;1.80;99.90;;;1.03;100.00;97576.59;5066386;28;19956;-45
2022/04/11 00:16:09;;;;;;;;;;;1.80;99.90;;;1.02;100.00;97577.44;5082183;22;19932;-44
2022/04/11 00:18:35;;;;;;;;;;;1.80;99.90;;;0.96;100.00;97565.31;5075786;28;19984;-45
2022/04/11 00:21:01;;;;;;;;;;;1.80;99.90;;;0.92;100.00;97567.03;5075653;28;19923;-43
2022/04/11 00:23:26;;;;;;;;;;;1.80;99.90;;;0.98;100.00;97580.91;5072866;28;19920;-44
2022/04/11 00:25:52;;;;;;;;;;;1.80;99.90;;;0.95;100.00;97582.63;5077436;28;19926;-43
2022/04/11 00:28:18;;;;;;;;;;;1.80;99.90;;;0.92;100.00;97581.75;5081128;28;19923;-44
2022/04/11 00:30:44;;;;;;;;;;;1.70;99.90;;;0.85;100.00;97565.25;5081111;28;19928;-45
2022/04/11 00:33:10;;;;;;;;;;;1.70;99.90;;;0.84;100.00;97566.09;5078593;28;20867;-44
2022/04/11 00:35:35;;;;;;;;;;;1.70;99.90;;;0.80;100.00;97579.94;5081120;28;20468;-47
2022/04/11 00:38:01;;;;;;;;;;;1.60;99.90;;;0.73;100.00;97568.66;5076134;28;19935;-46
2022/04/11 00:40:27;;;;;;;;;;;1.60;99.90;;;0.66;100.00;97564.28;5080867;28;20658;-45
2022/04/11 00:42:52;;;;;;;;;;;1.60;99.90;;;0.72;100.00;97560.88;5081113;28;19924;-44
2022/04/11 00:45:18;;;;;;;;;;;1.50;99.90;;;0.67;100.00;97558.25;5080000;28;19920;-45
2022/04/11 00:47:47;;;;;;;;;;;1.50;99.90;;;0.64;100.00;97558.22;5079965;28;19973;-44
2022/04/11 00:50:13;;;;;;;;;;;1.40;99.90;;;0.61;100.00;97555.66;5079908;28;19924;-44
2022/04/11 00:52:58;;;;;;;;;;;1.40;99.90;;;0.55;100.00;97563.38;5080955;28;19919;-44
2022/04/11 00:55:24;;;;;;;;;;;1.40;99.90;;;0.51;100.00;97552.13;5079251;28;19927;-46
2022/04/11 00:57:51;;;;;;;;;;;1.40;99.90;;;0.48;100.00;97553.81;5080251;28;20110;-43
2022/04/11 01:00:17;;;;;;;;;;;1.30;99.90;;;0.45;100.00;97544.31;5081148;28;19923;-44
2022/04/11 01:02:42;;;;;;;;;;;1.30;99.90;;;0.42;100.00;97544.28;5080460;28;20432;-45
2022/04/11 01:05:09;;;;;;;;;;;1.30;99.90;;;0.43;100.00;97547.75;5075485;28;19924;-45
2022/04/11 01:07:35;;;;;;;;;;;1.30;99.90;;;0.39;100.00;97546.84;5079301;28;19938;-45
2022/04/11 01:10:02;;;;;;;;;;;1.20;99.90;;;0.36;100.00;97545.13;5077809;28;19920;-44
2022/04/11 01:12:27;;;;;;;;;;;1.20;99.90;;;0.34;100.00;97548.56;5080739;28;19920;-46
2022/04/11 01:14:53;;;;;;;;;;;1.20;99.90;;;0.31;100.00;97545.97;5080536;28;19931;-45
2022/04/11 01:17:19;;;;;;;;;;;1.20;99.90;;;0.32;100.00;97551.16;5075869;28;20372;-43
2022/04/11 01:19:44;;;;;;;;;;;1.20;99.90;;;0.32;100.00;97550.28;5078862;28;19930;-44
2022/04/11 01:22:10;;;;;;;;;;;1.20;99.90;;;0.36;100.00;97542.53;5077610;28;19916;-43
2022/04/11 01:24:37;;;;;;;;;;;1.20;99.90;;;0.38;100.00;97550.34;5074956;28;19967;-44
2022/04/11 01:27:03;;;;;;;;;;;1.20;99.90;;;0.41;100.00;97544.28;5076003;28;19920;-44
2022/04/11 01:29:28;;;;;;;;;;;1.30;99.90;;;0.43;100.00;97548.63;5079896;28;19927;-44
2022/04/11 01:31:54;;;;;;;;;;;1.30;99.90;;;0.44;100.00;97545.16;5079449;28;20821;-44
2022/04/11 01:34:19;;;;;;;;;;;1.30;99.90;;;0.45;100.00;97541.72;5078921;28;19921;-44
2022/04/11 01:36:45;;;;;;;;;;;1.40;99.90;;;0.46;100.00;97534.78;5074388;28;19989;-43
2022/04/11 01:39:11;;;;;;;;;;;1.40;99.90;;;0.52;100.00;97535.69;5068274;28;20065;-43
2022/04/11 01:41:36;;;;;;;;;;;1.40;99.90;;;0.53;100.00;97539.16;5077687;28;20268;-45
2022/04/11 01:44:02;;;;;;;;;;;1.40;99.90;;;0.58;100.00;97534.84;5077360;28;19920;-45
2022/04/11 01:46:28;;;;;;;;;;;1.40;99.90;;;0.62;100.00;97535.75;5079362;28;19927;-44
2022/04/11 01:48:53;;;;;;;;;;;1.50;99.90;;;0.65;100.00;97540.94;5077659;28;20843;-46
2022/04/11 01:51:19;;;;;;;;;;;1.50;99.90;;;0.68;100.00;97531.44;5076756;28;19989;-44
2022/04/11 01:53:44;;;;;;;;;;;1.50;99.90;;;0.70;100.00;97531.44;5077628;28;19924;-45
2022/04/11 01:56:10;;;;;;;;;;;1.50;99.90;;;0.59;100.00;97505.44;5065793;28;20368;-46
2022/04/11 01:58:36;;;;;;;;;;;1.60;99.90;;;0.78;100.00;97534.09;5078867;28;19920;-46
2022/04/11 02:01:02;;;;;;;;;;;1.60;99.90;;;0.81;100.00;97531.47;5077562;28;19982;-45
2022/04/11 02:03:27;;;;;;;;;;;1.60;99.90;;;0.77;100.00;97520.22;5077907;28;20048;-43
2022/04/11 02:05:53;;;;;;;;;;;1.70;99.90;;;0.85;100.00;97520.25;5077590;28;20508;-43
2022/04/11 02:08:19;;;;;;;;;;;1.70;99.90;;;0.87;100.00;97524.59;5073945;28;20049;-43
2022/04/11 02:10:46;;;;;;;;;;;1.70;99.90;;;0.70;100.00;97500.28;5078429;28;20426;-44
2022/04/11 02:13:11;;;;;;;;;;;1.70;99.90;;;0.89;100.00;97522.00;5077510;28;19977;-45
2022/04/11 02:15:37;;;;;;;;;;;1.80;99.90;;;0.92;100.00;97516.81;5079716;28;19916;-43
2022/04/11 02:18:03;;;;;;;;;;;1.80;99.90;;;0.96;100.00;97515.97;5076382;28;19952;-44
2022/04/11 02:20:30;;;;;;;;;;;1.80;99.90;;;0.80;100.00;97475.22;5076635;28;19980;-45
2022/04/11 02:22:57;;;;;;;;;;;1.80;99.90;;;0.98;100.00;97501.25;5080787;28;19924;-47
2022/04/11 02:25:24;;;;;;;;;;;1.80;99.90;;;1.02;100.00;97497.78;5073973;28;19931;-44
2022/04/11 02:27:51;;;;;;;;;;;1.90;99.90;;;1.04;100.00;97495.19;5078742;28;19981;-46
2022/04/11 02:30:17;;;;;;;;;;;1.90;99.90;;;1.06;100.00;97494.34;5073373;28;19943;-44
2022/04/11 02:32:43;;;;;;;;;;;1.90;99.90;;;1.07;100.00;97492.59;5077009;28;19928;-42
2022/04/11 02:35:09;;;;;;;;;;;1.90;99.90;;;1.06;100.00;97486.56;5078947;28;19940;-44
2022/04/11 02:37:35;;;;;;;;;;;1.90;99.90;;;1.08;100.00;97491.75;5077018;28;20360;-44
2022/04/11 02:40:01;;;;;;;;;;;1.90;99.90;;;1.06;100.00;97483.06;5075514;28;19923;-46
2022/04/11 02:42:28;;;;;;;;;;;1.90;99.90;;;1.09;100.00;97489.13;5078659;28;20784;-45
2022/04/11 02:44:53;;;;;;;;;;;2.00;99.90;;;1.09;100.00;97481.34;5080373;28;19912;-45
2022/04/11 02:47:20;;;;;;;;;;;2.00;99.90;;;1.10;100.00;97484.84;5069435;28;19970;-45
2022/04/11 02:49:45;;;;;;;;;;;2.00;99.90;;;1.12;100.00;97477.91;5078107;28;20074;-46
2022/04/11 02:52:11;;;;;;;;;;;2.00;99.90;;;1.11;100.00;97469.25;5077322;28;19928;-46
2022/04/11 02:54:37;;;;;;;;;;;2.00;99.90;;;1.14;100.00;97466.63;5080310;28;19938;-45
2022/04/11 02:57:03;;;;;;;;;;;2.00;99.90;;;1.15;100.00;97464.94;5072492;28;19924;-45
2022/04/11 02:59:29;;;;;;;;;;;2.00;99.90;;;1.18;100.00;97461.47;5076427;28;19954;-44
2022/04/11 03:01:55;;;;;;;;;;;2.00;99.90;;;1.18;100.00;97454.53;5077398;28;19931;-44
2022/04/11 03:04:21;;;;;;;;;;;2.10;99.90;;;1.20;100.00;97455.38;5077028;28;20275;-47
2022/04/11 03:06:47;;;;;;;;;;;2.00;99.90;;;1.21;100.00;97449.34;5078169;28;20390;-44
2022/04/11 03:09:12;;;;;;;;;;;2.00;99.90;;;1.23;100.00;97449.34;5078445;28;20272;-47
2022/04/11 03:11:38;;;;;;;;;;;2.00;99.90;;;1.23;100.00;97437.22;5080895;28;19924;-49
2022/04/11 03:14:04;;;;;;;;;;;2.10;99.90;;;1.22;100.00;97445.88;5081212;28;19920;-43
2022/04/11 03:16:30;;;;;;;;;;;2.10;99.90;;;1.22;100.00;97438.09;5076683;28;19959;-43
2022/04/11 03:18:56;;;;;;;;;;;2.00;99.90;;;1.21;100.00;97438.94;5072490;28;20650;-44
2022/04/11 03:21:21;;;;;;;;;;;2.10;99.90;;;1.20;100.00;97438.94;5074108;28;19916;-47
2022/04/11 03:23:47;;;;;;;;;;;2.00;99.90;;;1.18;100.00;97433.75;5075671;28;20388;-43
2022/04/11 03:26:13;;;;;;;;;;;2.00;99.90;;;1.18;100.00;97425.94;5076938;28;19916;-43
2022/04/11 03:28:38;;;;;;;;;;;2.00;99.90;;;1.15;100.00;97431.16;5076476;28;19960;-45
2022/04/11 03:31:04;;;;;;;;;;;2.00;99.90;;;1.16;100.00;97427.69;5072172;28;19969;-44
2022/04/11 03:33:29;;;;;;;;;;;2.00;99.90;;;1.12;100.00;97426.81;5080011;28;20341;-43
2022/04/11 03:35:55;;;;;;;;;;;2.00;99.90;;;1.09;100.00;97426.81;5076133;28;19920;-45
2022/04/11 03:38:21;;;;;;;;;;;1.90;99.90;;;1.05;100.00;97430.25;5073352;28;20006;-44
2022/04/11 03:40:46;;;;;;;;;;;1.90;99.90;;;1.06;100.00;97441.50;5075803;28;20013;-45
2022/04/11 03:43:12;;;;;;;;;;;1.90;99.90;;;0.95;100.00;97419.00;5081044;28;19924;-44
2022/04/11 03:45:38;;;;;;;;;;;1.80;99.90;;;1.03;100.00;97425.94;5073855;28;19916;-45
2022/04/11 03:48:04;;;;;;;;;;;1.90;99.90;;;1.03;100.00;97425.94;5072823;28;19965;-44
2022/04/11 03:50:29;;;;;;;;;;;1.80;99.90;;;1.00;100.00;97423.34;5072239;28;19921;-44
2022/04/11 03:52:55;;;;;;;;;;;1.80;99.90;;;0.99;100.00;97419.00;5077869;28;20036;-45
2022/04/11 03:55:20;;;;;;;;;;;1.80;99.90;;;0.98;100.00;97423.34;5077070;28;19931;-46
2022/04/11 03:57:46;;;;;;;;;;;1.80;99.90;;;0.95;100.00;97419.00;5073586;28;19920;-46
2022/04/11 04:00:13;;;;;;;;;;;1.80;99.90;;;0.84;100.00;97414.66;5073723;28;19959;-46
2022/04/11 04:02:38;;;;;;;;;;;1.80;99.90;;;0.89;100.00;97425.91;5080283;28;20299;-47
2022/04/11 04:05:04;;;;;;;;;;;1.70;99.90;;;0.64;100.00;97399.91;5076417;28;20173;-44
2022/04/11 04:07:30;;;;;;;;;;;1.70;99.90;;;0.80;100.00;97420.72;5076548;28;19919;-45
2022/04/11 04:09:55;;;;;;;;;;;1.70;99.90;;;0.76;100.00;97433.69;5074438;28;19924;-43
2022/04/11 04:12:22;;;;;;;;;;;1.60;99.90;;;0.54;100.00;97390.38;5071167;28;19924;-44
2022/04/11 04:14:48;;;;;;;;;;;1.60;99.90;;;0.71;100.00;97418.97;5071626;28;19916;-43
2022/04/11 04:17:14;;;;;;;;;;;1.60;99.90;;;0.66;100.00;97416.34;5070458;28;19917;-45
2022/04/11 04:19:40;;;;;;;;;;;1.60;99.90;;;0.65;100.00;97406.84;5076531;28;19916;-45
2022/04/11 04:22:07;;;;;;;;;;;1.50;99.90;;;0.63;100.00;97407.69;5075308;28;19920;-44
2022/04/11 04:24:34;;;;;;;;;;;1.50;99.90;;;0.60;100.00;97399.91;5073153;28;19931;-44
2022/04/11 04:27:01;;;;;;;;;;;1.50;99.90;;;0.57;100.00;97399.03;5077409;28;19924;-43
2022/04/11 04:29:27;;;;;;;;;;;1.40;99.90;;;0.54;100.00;97392.97;5074881;28;19977;-46
2022/04/11 04:31:54;;;;;;;;;;;1.40;99.90;;;0.35;100.00;97366.97;5071065;28;19947;-44
2022/04/11 04:34:20;;;;;;;;;;;1.40;99.90;;;0.47;100.00;97389.50;5080269;28;20020;-45
2022/04/11 04:36:46;;;;;;;;;;;1.30;99.90;;;0.45;100.00;97393.81;5081636;28;19923;-44
2022/04/11 04:39:12;;;;;;;;;;;1.30;99.90;;;0.40;100.00;97392.94;5077003;28;19916;-45
2022/04/11 04:41:38;;;;;;;;;;;1.30;99.90;;;0.36;100.00;97386.88;5080820;28;20299;-45
2022/04/11 04:44:06;;;;;;;;;;;1.30;99.90;;;0.34;100.00;97395.50;5073072;28;20200;-45
2022/04/11 04:46:32;;;;;;;;;;;1.20;99.90;;;0.30;100.00;97388.56;5066036;28;19924;-43
2022/04/11 04:48:58;;;;;;;;;;;1.10;99.90;;;0.26;100.00;97387.69;5073596;28;19977;-44
2022/04/11 04:51:24;;;;;;;;;;;1.10;99.90;;;0.25;100.00;97393.75;5075162;28;19928;-45
2022/04/11 04:53:49;;;;;;;;;;;1.10;99.90;;;0.22;100.00;97390.28;5076464;28;20015;-44
2022/04/11 04:56:15;;;;;;;;;;;1.10;99.90;;;0.16;100.00;97396.28;5075040;28;19916;-48
2022/04/11 04:58:41;;;;;;;;;;;1.10;99.90;;;0.14;100.00;97409.28;5075870;28;19924;-45
2022/04/11 05:01:06;;;;;;;;;;;1.00;99.90;;;0.05;100.00;97391.06;5076212;28;20366;-46
2022/04/11 05:03:32;;;;;;;;;;;1.00;99.90;;;0.12;100.00;97402.31;5073876;28;19957;-45
2022/04/11 05:05:57;;;;;;;;;;;1.00;99.90;;;0.13;100.00;97406.66;5080699;28;19919;-45
2022/04/11 05:08:23;;;;;;;;;;;1.00;99.90;;;0.11;100.00;97406.66;5078117;28;22085;-44
2022/04/11 05:10:49;;;;;;;;;;;1.00;99.90;;;0.17;100.00;97400.63;5077776;28;20314;-45
2022/04/11 05:13:14;;;;;;;;;;;1.00;99.90;;;0.10;100.00;97389.34;5072808;28;20198;-44
2022/04/11 05:15:46;;;;;;;;;;;1.00;99.90;;;0.17;100.00;97404.06;5075916;28;19961;-46
2022/04/11 05:18:13;;;;;;;;;;;1.00;99.90;;;0.22;100.00;97403.25;5075972;28;19947;-48
2022/04/11 05:20:39;;;;;;;;;;;1.00;99.90;;;0.25;100.00;97404.13;5075815;28;19928;-44
2022/04/11 05:23:05;;;;;;;;;;;1.10;99.90;;;0.24;100.00;97399.78;5078113;28;19997;-45
2022/04/11 05:25:31;;;;;;;;;;;1.10;99.90;;;0.31;100.00;97398.09;5075237;28;20588;-47
2022/04/11 05:27:56;;;;;;;;;;;1.10;99.90;;;0.32;100.00;97402.41;5073250;28;19924;-47
2022/04/11 05:30:22;;;;;;;;;;;1.10;99.90;;;0.35;100.00;97411.06;5078647;28;19924;-47
2022/04/11 05:32:48;;;;;;;;;;;1.20;99.90;;;0.41;100.00;97409.34;5076825;28;20299;-46
2022/04/11 05:35:13;;;;;;;;;;;1.20;99.90;;;0.49;100.00;97405.94;5079450;28;20290;-45
2022/04/11 05:37:39;;;;;;;;;;;1.40;99.90;;;0.55;100.00;97402.47;5073608;28;19927;-45
2022/04/11 05:40:05;;;;;;;;;;;1.40;99.90;;;0.61;100.00;97410.31;5078840;28;20007;-45
2022/04/11 05:42:31;;;;;;;;;;;1.40;99.90;;;0.67;100.00;97401.66;5080107;28;19916;-45
2022/04/11 05:44:57;;;;;;;;;;;1.50;99.90;;;0.59;100.00;97372.22;5074975;28;19967;-44
2022/04/11 05:47:24;;;;;;;;;;;1.60;99.90;;;0.80;100.00;97386.97;5069059;28;21275;-46
2022/04/11 05:49:50;;;;;;;;;;;1.70;99.90;;;0.97;100.00;97403.44;5072120;28;19924;-47
2022/04/11 05:52:16;;;;;;;;;;;1.80;99.90;;;1.07;100.00;97401.69;5063656;28;19924;-45
2022/04/11 05:54:41;;;;;;;;;;;1.90;99.90;;;1.17;100.00;97395.66;5070512;28;20028;-44
2022/04/11 05:57:07;;;;;;;;;;;2.00;99.90;;;1.32;100.00;97394.78;5073128;28;19920;-44
2022/04/11 05:59:32;;;;;;;;;;;2.20;99.90;;;1.47;100.00;97404.28;5076033;28;20009;-44
2022/04/11 06:01:58;;;;;;;;;;;2.30;99.90;;;1.48;100.00;97393.03;5063864;28;19956;-45
2022/04/11 06:04:24;;;;;;;;;;;2.40;99.90;;;1.69;100.00;97397.34;5070671;28;20386;-44
2022/04/11 06:06:49;;;;;;;;;;;2.60;99.90;;;1.78;100.00;97399.06;5069593;28;20422;-47
2022/04/11 06:09:15;;;;;;;;;;;2.70;99.90;;;1.92;100.00;97394.69;5074588;28;19916;-45
2022/04/11 06:11:41;;;;;;;;;;;2.80;99.90;;;2.03;100.00;97405.94;5074007;28;19920;-45
2022/04/11 06:14:06;;;;;;;;;;;2.90;99.90;;;1.93;100.00;97365.19;5074342;28;19981;-43
2022/04/11 06:16:32;;;;;;;;;;;3.00;99.90;;;2.12;100.00;97381.63;5073864;28;20012;-44
2022/04/11 06:18:57;;;;;;;;;;;3.10;99.90;;;2.35;100.00;97404.97;5075521;28;20328;-45
2022/04/11 06:21:23;;;;;;;;;;;3.20;99.90;;;2.46;100.00;97407.50;5072406;28;19920;-45
2022/04/11 06:26:23;;;;;;;;;;;3.40;99.90;;;2.62;100.00;97400.47;5049105;28;19933;-49
2022/04/11 06:28:49;;;;;;;;;;;3.50;99.90;;;2.74;100.00;97405.59;5057669;28;20395;-47
2022/04/11 06:31:14;;;;;;;;;;;3.50;99.90;;;2.85;100.00;97402.94;5054039;28;19978;-50
2022/04/11 06:33:40;;;;;;;;;;;3.70;99.90;;;2.90;100.00;97395.97;5054720;28;20019;-47
2022/04/11 06:36:06;;;;;;;;;;;3.80;99.90;;;3.02;100.00;97401.09;5035303;28;19970;-50
2022/04/11 06:38:32;;;;;;;;;;;3.90;99.90;;;3.11;100.00;97402.78;5033485;28;19921;-47
2022/04/11 06:40:57;;;;;;;;;;;4.00;99.90;;;3.21;100.00;97406.16;5033981;28;19924;-50
2022/04/11 06:43:23;;;;;;;;;;;4.10;99.90;;;3.37;100.00;97409.50;5037028;28;19917;-49
2022/04/11 06:45:49;;;;;;;;;;;4.20;99.90;;;3.48;100.00;97406.81;5035358;28;19925;-47
2022/04/11 06:48:15;;;;;;;;;;;4.30;99.90;;;3.59;100.00;97405.84;5032972;28;19956;-46
2022/04/11 06:50:42;;;;;;;;;;;4.40;99.90;;;3.71;100.00;97404.84;5031359;28;20016;-46
2022/04/11 06:53:09;;;;;;;;;;;4.50;99.90;;;3.79;99.87;97400.44;5033461;28;19921;-49
2022/04/11 06:55:35;;;;;;;;;;;4.60;99.90;;;3.94;98.19;97394.19;5034392;28;19925;-49
2022/04/11 06:58:01;;;;;;;;;;;4.70;99.90;;;4.00;97.39;97401.09;5037362;28;19943;-46
2022/04/11 07:00:27;;;;;;;;;;;4.80;99.90;;;4.12;97.34;97394.88;5031463;28;19960;-46
2022/04/11 07:02:53;;;;;;;;;;;4.90;99.90;;;4.18;96.75;97400.91;5038944;28;19925;-47
2022/04/11 07:05:19;;;;;;;;;;;5.00;99.90;;;4.36;95.38;97401.53;5032795;28;19942;-48
2022/04/11 07:07:44;;;;;;;;;;;5.10;99.90;;;4.38;94.98;97402.41;5038095;28;19925;-46
2022/04/11 07:10:10;;;;;;;;;;;5.20;99.90;;;4.40;94.93;97396.28;5035973;28;19917;-48
2022/04/11 07:12:39;;;;;;;;;;;5.30;99.90;;;4.47;94.78;97398.81;5034760;28;20797;-48
2022/04/11 07:15:06;;;;;;;;;;;5.30;99.90;;;4.56;93.65;97396.94;5036245;28;19956;-47
2022/04/11 07:17:31;;;;;;;;;;;5.40;99.90;;;4.55;93.28;97386.53;5033997;28;19994;-47
2022/04/11 07:19:57;;;;;;;;;;;5.50;99.90;;;4.78;92.65;97409.72;5039208;28;20437;-48
2022/04/11 07:22:23;;;;;;;;;;;5.60;99.90;;;4.89;91.18;97409.56;5029149;28;19925;-47
2022/04/11 07:24:51;;;;;;;;;;;5.70;99.90;;;4.97;91.16;97411.19;5031577;28;20281;-48
2022/04/11 07:27:17;;;;;;;;;;;5.80;99.90;;;5.12;88.96;97414.47;5036846;28;19947;-49
2022/04/11 07:29:42;;;;;;;;;;;5.90;99.90;;;5.20;88.71;97401.28;5037695;28;20432;-50
2022/04/11 07:32:08;;;;;;;;;;;6.00;99.90;;;5.37;85.62;97406.25;5035420;28;19925;-47
2022/04/11 07:34:34;;;;;;;;;;;6.10;99.90;;;5.49;85.55;97398.19;5035465;28;19962;-48
2022/04/11 07:37:00;;;;;;;;;;;6.20;99.90;;;5.64;85.03;97399.69;5036496;28;19985;-48
2022/04/11 07:39:25;;;;;;;;;;;6.40;99.90;;;5.77;82.26;97400.34;5037241;28;19932;-46
2022/04/11 07:41:53;;;;;;;;;;;6.50;99.90;;;5.83;81.35;97393.25;5035840;28;19936;-46
2022/04/11 07:44:19;;;;;;;;;;;6.70;99.90;;;6.04;81.16;97412.09;5031395;28;19979;-47
2022/04/11 07:46:45;;;;;;;;;;;6.80;99.90;;;6.44;74.60;97411.31;5032129;28;19924;-47
2022/04/11 07:49:10;;;;;;;;;;;7.00;99.90;;;6.35;75.01;97393.16;5037281;28;20044;-51
2022/04/11 07:51:36;;;;;;;;;;;7.10;99.90;;;6.60;72.85;97410.09;5036313;28;19929;-47
2022/04/11 07:54:02;;;;;;;;;;;7.20;99.90;;;6.64;73.60;97410.88;5033525;28;19963;-49
2022/04/11 07:56:29;;;;;;;;;;;7.30;99.90;;;6.80;72.59;97414.03;5036518;28;20384;-47
2022/04/11 07:58:55;;;;;;;;;;;7.50;99.90;;;6.96;70.24;97406.72;5035076;28;21116;-45
2022/04/11 08:01:21;;;;;;;;;;;7.60;99.90;;;7.05;68.25;97406.50;5033452;28;19960;-51
2022/04/11 08:03:47;;;;;;;;;;;7.70;99.90;;;7.14;68.71;97405.44;5036041;28;20375;-50
2022/04/11 08:06:13;;;;;;;;;;;7.80;99.90;;;7.05;66.67;97378.53;5035849;28;19926;-50
2022/04/11 08:08:46;;;;;;;;;;;7.90;99.90;;;7.32;66.36;97402.41;5038314;28;19925;-50
2022/04/11 08:11:16;;;;;;;;;;;8.00;99.90;;;7.32;64.89;97381.41;5038698;28;20447;-52
2022/04/11 08:13:42;;;;;;;;;;;8.10;99.90;;;7.58;63.76;97400.88;5040665;28;19925;-50
2022/04/11 08:16:08;;;;;;;;;;;8.20;99.90;;;7.70;62.66;97407.56;5038457;28;19982;-50
2022/04/11 08:18:34;;;;;;;;;;;8.30;99.90;;;7.72;63.83;97401.41;5034602;28;19924;-50
2022/04/11 08:21:03;;;;;;;;;;;8.40;99.90;;;7.91;60.31;97395.66;5031004;28;19928;-49
2022/04/11 08:23:29;;;;;;;;;;;8.50;99.90;;;7.89;60.22;97390.44;5036253;28;19924;-50
2022/04/11 08:25:55;;;;;;;;;;;8.60;99.90;;;8.03;60.89;97411.09;5037658;28;19925;-49
2022/04/11 08:28:20;;;;;;;;;;;8.70;99.90;;;8.19;60.49;97408.94;5038383;28;19928;-48
2022/04/11 08:30:46;;;;;;;;;;;8.80;99.90;;;8.18;61.62;97396.69;5036940;28;19929;-48
2022/04/11 08:33:12;;;;;;;;;;;8.80;99.90;;;8.24;58.65;97407.03;5031853;28;19916;-48
2022/04/11 08:35:38;;;;;;;;;;;8.90;99.90;;;8.30;59.46;97403.38;5034788;28;20011;-47
2022/04/11 08:38:04;;;;;;;;;;;8.90;99.90;;;8.28;59.91;97402.56;5036581;28;19974;-50
2022/04/11 08:40:30;;;;;;;;;;;8.90;99.90;;;8.27;59.78;97392.94;5040512;28;20308;-49
2022/04/11 08:42:56;;;;;;;;;;;9.00;99.90;;;8.38;60.31;97398.75;5036057;28;20165;-47
2022/04/11 08:45:23;;;;;;;;;;;9.00;99.90;;;8.51;59.39;97400.19;5037982;28;19928;-47
2022/04/11 08:47:50;;;;;;;;;;;9.10;99.90;;;8.65;57.18;97406.78;5037210;28;19920;-50
2022/04/11 08:50:16;;;;;;;;;;;9.20;99.90;;;8.71;57.60;97406.63;5035451;28;20661;-48
2022/04/11 08:52:42;;;;;;;;;;;9.30;99.90;;;8.76;56.90;97399.47;5038508;28;19916;-48
2022/04/11 08:55:09;;;;;;;;;;;9.30;99.90;;;8.86;57.64;97392.16;5036910;28;19916;-46
2022/04/11 08:57:36;;;;;;;;;;;9.50;99.90;;;9.08;55.93;97395.88;5039003;28;20011;-49
2022/04/11 09:00:11;;;;;;;;;;;9.60;99.90;;;9.05;55.73;97390.69;5035157;28;21263;-47
2022/04/11 09:02:37;;;;;;;;;;;9.60;99.90;;;9.11;55.65;97384.38;5039622;28;19925;-51
2022/04/11 09:05:04;;;;;;;;;;;9.70;99.90;;;9.20;55.36;97394.59;5032242;28;19924;-49
2022/04/11 09:07:47;;;;;;;;;;;9.80;99.90;;;9.36;52.42;97387.09;5032338;28;20031;-49
2022/04/11 09:10:17;;;;;;;;;;;9.90;99.90;;;9.26;52.33;97377.75;5035624;28;20486;-47
2022/04/11 09:12:51;;;;;;;;;;;9.90;99.70;;;9.18;55.61;97370.97;5041699;28;19932;-49
2022/04/11 09:15:18;;;;;;;;;;;9.90;99.90;;;9.31;54.22;97387.25;5038837;28;20537;-51
2022/04/11 09:17:45;;;;;;;;;;;9.90;99.90;;;9.40;53.40;97382.59;5041776;28;19917;-47
2022/04/11 09:20:21;;;;;;;;;;;10.00;99.90;;;9.66;51.26;97377.31;5036662;28;19921;-47
2022/04/11 09:22:48;;;;;;;;;;;10.10;98.60;;;9.67;52.72;97371.16;5039321;28;19939;-47
2022/04/11 09:25:18;;;;;;;;;;;10.20;99.20;;;9.77;50.99;97379.59;5033306;28;20145;-47
2022/04/11 09:27:45;;;;;;;;;;;10.30;98.60;;;9.70;50.95;97381.56;5038966;28;19916;-47
2022/04/11 09:30:21;;;;;;;;;;;10.30;98.10;;;9.68;51.68;97375.50;5036078;28;19931;-46
2022/04/11 09:32:57;;;;;;;;;;;10.30;98.70;;;9.81;51.93;97372.44;5033620;28;19963;-48
2022/04/11 09:35:24;;;;;;;;;;;10.40;98.50;;;9.91;52.53;97369.44;5038933;28;19921;-48
2022/04/11 09:38:08;;;;;;;;;;;10.40;98.30;;;9.92;51.24;97362.38;5039519;28;20296;-46
2022/04/11 09:40:42;;;;;;;;;;;10.50;97.60;;;10.14;50.90;97357.25;5029885;28;19928;-48
2022/04/11 09:43:09;;;;;;;;;;;10.70;97.50;;;10.22;50.63;97362.22;5036037;28;20409;-49
2022/04/11 09:45:55;;;;;;;;;;;10.80;97.30;;;10.35;48.72;97360.03;5034623;28;20332;-51
2022/04/11 09:48:26;;;;;;;;;;;10.90;96.00;;;10.40;49.69;97366.00;5034758;28;19916;-48
2022/04/11 09:50:53;;;;;;;;;;;11.00;96.50;;;10.39;49.48;97345.81;5028026;28;19982;-51
2022/04/11 09:53:20;;;;;;;;;;;11.10;96.10;;;10.54;49.47;97353.16;5033710;28;19920;-48
2022/04/11 09:55:48;;;;;;;;;;;11.10;95.90;;;10.61;48.19;97344.09;5040222;28;19921;-48
2022/04/11 09:58:14;;;;;;;;;;;11.20;94.90;;;10.75;46.94;97338.31;5037244;28;19956;-48
2022/04/11 10:00:43;;;;;;;;;;;11.30;93.90;;;10.84;47.00;97337.09;5040292;28;20301;-47
2022/04/11 10:03:08;;;;;;;;;;;11.40;93.90;;;11.07;46.12;97338.81;5032197;28;19952;-47
2022/04/11 10:05:35;;;;;;;;;;;11.60;93.10;;;11.25;46.27;97331.91;5036871;28;20031;-48
2022/04/11 10:08:06;;;;;;;;;;;11.70;92.90;;;11.28;45.37;97329.16;5035460;28;19946;-48
2022/04/11 10:10:34;;;;;;;;;;;11.80;92.20;;;11.35;44.51;97314.78;5034246;28;19975;-50
2022/04/11 10:13:01;;;;;;;;;;;11.90;91.30;;;11.41;42.76;97324.22;5035981;28;19924;-48
2022/04/11 10:15:27;;;;;;;;;;;12.00;88.70;;;11.42;43.05;97323.31;5033883;28;19925;-48
2022/04/11 10:17:55;;;;;;;;;;;12.00;88.90;;;11.54;44.22;97317.53;5037878;28;19928;-48
2022/04/11 10:20:29;;;;;;;;;;;12.10;90.10;;;11.66;43.87;97321.41;5039300;28;19950;-49
2022/04/11 10:23:11;;;;;;;;;;;12.20;90.00;;;11.82;44.73;97311.91;5038275;28;20359;-49
2022/04/11 10:25:44;;;;;;;;;;;12.30;90.40;;;11.85;43.59;97311.78;5034812;28;19917;-52
2022/04/11 10:28:20;;;;;;;;;;;12.40;89.50;;;11.79;43.96;97305.91;5037106;28;20070;-49
2022/04/11 10:31:04;;;;;;;;;;;12.40;88.70;;;11.84;42.77;97310.09;5037331;28;19921;-49
2022/04/11 10:34:02;;;;;;;;;;;12.40;86.40;;;11.80;43.11;97313.75;5034619;28;20567;-51
2022/04/11 10:36:34;;;;;;;;;;;12.40;87.00;;;11.85;43.33;97306.50;5004454;28;19920;-51
2022/04/11 10:39:12;;;;;;;;;;;12.50;87.40;;;11.99;40.93;97313.88;5040129;28;20011;-50
2022/04/11 10:41:56;;;;;;;;;;;12.50;84.00;;;11.93;41.10;97303.53;5036802;28;19952;-52
2022/04/11 10:44:33;;;;;;;;;;;12.50;81.50;;;11.97;41.94;97309.56;5035449;28;20261;-51
2022/04/11 10:47:11;;;;;;;;;;;12.50;83.30;;;11.96;40.52;97300.78;5036472;28;19928;-52
2022/04/11 10:49:49;;;;;;;;;;;12.50;80.40;;;12.03;41.01;97304.88;5037399;28;19925;-49
2022/04/11 10:52:29;;;;;;;;;;;12.60;82.20;;;12.06;41.70;97298.59;5037566;28;19964;-49
2022/04/11 10:54:56;;;;;;;;;;;12.60;80.30;;;12.10;41.51;97296.69;5036410;28;20597;-49
2022/04/11 10:57:38;;;;;;;;;;;12.70;81.60;;;12.07;41.20;97289.72;5035814;28;20458;-50
2022/04/11 11:00:11;;;;;;;;;;;12.60;81.50;;;12.06;41.51;97289.78;5039516;28;20135;-51
2022/04/11 11:02:59;;;;;;;;;;;12.60;81.00;;;11.80;41.72;97244.22;5033281;28;19929;-50
2022/04/11 11:05:31;;;;;;;;;;;12.60;80.10;;;12.13;42.52;97289.47;5037381;28;20003;-50
2022/04/11 11:08:09;;;;;;;;;;;12.70;82.40;;;12.11;41.42;97275.44;5035347;28;20836;-51
2022/04/11 11:10:51;;;;;;;;;;;12.70;80.70;;;12.05;40.14;97269.59;5040798;28;19924;-50
2022/04/11 11:13:29;;;;;;;;;;;12.60;77.90;;;11.99;41.12;97268.94;5038733;28;20303;-53
2022/04/11 11:15:58;;;;;;;;;;;12.60;79.00;;;12.00;41.84;97264.50;5033829;28;20037;-49
2022/04/11 11:18:25;;;;;;;;;;;12.60;80.60;;;12.03;41.84;97256.44;5037841;28;19916;-50
2022/04/11 11:20:54;;;;;;;;;;;12.60;80.70;;;12.21;40.86;97249.47;5027789;28;20408;-51
2022/04/11 11:23:31;;;;;;;;;;;12.70;79.20;;;12.12;39.58;97245.44;5036255;28;19978;-51
2022/04/11 11:26:11;;;;;;;;;;;12.70;77.30;;;12.19;40.37;97228.38;5028704;28;19947;-50
2022/04/11 11:28:40;;;;;;;;;;;12.70;77.80;;;12.29;41.97;97241.16;5034732;28;19976;-52
2022/04/11 11:31:06;;;;;;;;;;;12.80;80.30;;;12.27;40.59;97237.75;5028406;28;20381;-49